Bruceville, IN (47516)

5:37 PM EDT on October 21, 2014 (GMT -0400)
Indian Creek | Change Station
CLOSE
Current Station
Personal Weather Station
Location: Bicknell, IN
Elevation: 153 m
Nearby Weather Stations

Elev 153 m 38.73 °N, 87.35 °W | Updated 7 minutes ago

Partly Cloudy
Partly Cloudy
16.4 °C
Feels Like 16.4 °C
N
6.4
Wind Variable Wind from North
Gusts 11.3 km/h

Today
High -- | Low -- °C
--% Chance of Precip.
Yesterday
High -- | Low -- °C
Precip. -- mm
8:05 AM 7:03 PM
Waning Crescent, 4% visible
Pressure 1020 hPa
Visibility 16.1 kilometers
Clouds Overcast 1493 m
Dew Point 7 °C
Humidity 54%
Rainfall 0 mm
Snow Depth Not available.
UV 0 out of 12
Pollen 2.20 out of 12
Air Quality Not available.
Flu Activity Sporadic
METAR KDCY 212115Z AUTO 36011G15KT 10SM OVC049 15/05 A3011 RMK AO2 T01500049

More Conditions Fewer Conditions

Pressure 1020 hPa
Visibility 16.1 kilometers
Clouds Overcast 1493 m
Dew Point 7 °C
Humidity 54%
Rainfall 0 mm
Snow Depth Not available.
UV 0 out of 12
Pollen 2.20 out of 12
Air Quality Not available.
Flu Activity Sporadic
METAR KDCY 212115Z AUTO 36011G15KT 10SM OVC049 15/05 A3011 RMK AO2 T01500049

More Conditions Fewer Conditions

10-Day Weather Forecast

Almanac

Astronomy

Oct. 21, 2014 Rise Set
Actual Time 8:05 AM EDT 7:03 PM EDT
Civil Twilight 7:38 AM EDT 7:30 PM EDT
Nautical Twilight 7:07 AM EDT 8:00 PM EDT
Astronomical Twilight 6:36 AM EDT 8:31 PM EDT
Moon 5:50 AM EDT 5:55 PM EDT
Length of Visible Light 11h 51m
Length of Day
10h 57m
Tomorrow will be 2m 22s shorter.
Waning Crescent, 4% of the Moon is Illuminated
Today
Waning Crescent
Oct 23
New
Oct 30
First Quarter
Nov 6
Full
Nov 14
Last Quarter

Today's Extremes

State Highs State Lows

Community

WunderPhotos

Upload Photos

1,763,779 photos uploaded!

Nearby

Snow Depth

Station Depth Elevation
No new snow has been reported.

Earthquake Activity

City Distance Mag. Time & Date
No recent earthquake activity has been reported nearby.
Minimum magnitude displayed is 2.5.

Coastal Water Temperatures

Place Temperature
No Stations Reporting

Nearby Weather Stations